»·PEaware :: N381PS KSFO-KLAX

N381PS :: KSFO-KLAX

FLIGHT INFORMATION

Flight Status: Arrived
Operator: Privately registered:
United States
More flights under this callsign
Pilot: Luis B. (14232)
Aircraft: Unknown
(DA62)
More flights by this aircraft type
Origin: KSFO San Francisco Intl
United States
Destination: KLAX Los Angeles Intl
United States
More flights between these airports :: More routes between these airports
Route: +SFO4 OSI V25 SNS V137 AVE V248 EHF KIMMO3
File this flight plan on PilotEdge
Remarks:
Altitude:
(Current/Filed)
9,000ft
Speed:
(Current/Filed)
170kts
Departed: 08-Oct-18 08:02 PM
Arrived: 08-Oct-18 09:58 PM
Distance/Time
Traveled:
294nm/1:55
Distance/Time
To Go:
Arrived

Flight Plot

Page will automatically refresh every two minutes.

Flight plan parsing failed; only flown route is shown


Map Options




Map Legend


Flown Route
Filed Route
Departure Airport
Arrival Airport
Navaid (VOR, NDB)
Fix

Horizontal Profiles

Position Reports

Time Latitude Longitude Heading Altitude Ground
Speed
08-Oct-18 19:45 37.627773 -122.384680 200 16ft 0kts
08-Oct-18 19:46 37.627773 -122.384680 200 16ft 0kts
08-Oct-18 19:47 37.627773 -122.384680 200 16ft 0kts
08-Oct-18 19:48 37.627773 -122.384680 200 16ft 0kts
08-Oct-18 19:49 37.627773 -122.384680 200 16ft 0kts
08-Oct-18 19:50 37.627773 -122.384680 200 16ft 0kts
08-Oct-18 19:51 37.627773 -122.384680 200 16ft 0kts
08-Oct-18 19:52 37.627773 -122.384680 200 16ft 0kts
08-Oct-18 19:53 37.627773 -122.384680 200 16ft 0kts
08-Oct-18 19:54 37.627773 -122.384680 200 16ft 0kts
08-Oct-18 19:55 37.627773 -122.384680 200 16ft 0kts
08-Oct-18 19:56 37.627773 -122.384680 200 16ft 0kts
08-Oct-18 19:57 37.627773 -122.384680 200 16ft 0kts
08-Oct-18 19:58 37.627663 -122.384735 201 16ft 5kts
08-Oct-18 19:59 37.625834 -122.382783 117 16ft 21kts
08-Oct-18 20:00 37.622892 -122.375750 118 16ft 19kts
08-Oct-18 20:01 37.620842 -122.370860 119 16ft 16kts
08-Oct-18 20:02 37.620079 -122.369951 215 16ft 0kts
08-Oct-18 20:03 37.619730 -122.370205 209 15ft 5kts
08-Oct-18 20:04 37.622302 -122.378074 297 21ft 86kts
08-Oct-18 20:05 37.632931 -122.407057 297 890ft 100kts
08-Oct-18 20:06 37.646018 -122.438583 298 1947ft 103kts
08-Oct-18 20:07 37.659258 -122.470512 299 2923ft 104kts
08-Oct-18 20:08 37.640744 -122.487663 159 3869ft 132kts
08-Oct-18 20:09 37.609229 -122.462960 146 4799ft 136kts
08-Oct-18 20:10 37.577014 -122.435813 147 5635ft 145kts
08-Oct-18 20:11 37.542709 -122.407034 143 6451ft 149kts
08-Oct-18 20:12 37.506977 -122.376992 143 7158ft 157kts
08-Oct-18 20:13 37.470292 -122.346213 143 7821ft 164kts
08-Oct-18 20:14 37.432004 -122.314146 142 8463ft 166kts
08-Oct-18 20:15 37.392860 -122.283089 151 9021ft 174kts
08-Oct-18 20:16 37.345930 -122.258146 155 9029ft 186kts
08-Oct-18 20:17 37.298165 -122.234234 154 9038ft 190kts
08-Oct-18 20:18 37.248739 -122.209632 154 9038ft 191kts
08-Oct-18 20:19 37.199267 -122.185088 155 9038ft 191kts
08-Oct-18 20:20 37.149360 -122.160391 155 8983ft 193kts
08-Oct-18 20:21 37.099689 -122.135848 155 8983ft 192kts
08-Oct-18 20:22 37.058446 -122.115491 155 8984ft 192kts
08-Oct-18 20:23 37.009066 -122.091145 155 9012ft 191kts
08-Oct-18 20:24 36.963453 -122.060987 118 9017ft 183kts
08-Oct-18 20:25 36.933852 -122.009065 121 9012ft 184kts
08-Oct-18 20:26 36.902357 -121.959323 122 9012ft 184kts
08-Oct-18 20:27 36.870030 -121.910494 123 9006ft 183kts
08-Oct-18 20:28 36.837548 -121.861763 123 9006ft 182kts
08-Oct-18 20:29 36.804966 -121.813002 123 9007ft 182kts
08-Oct-18 20:30 36.772491 -121.764485 123 9007ft 182kts
08-Oct-18 20:31 36.739946 -121.715905 123 8999ft 182kts
08-Oct-18 20:32 36.707361 -121.667382 123 8998ft 182kts
08-Oct-18 20:33 36.674765 -121.618900 124 8998ft 183kts
08-Oct-18 20:34 36.645142 -121.568068 117 8999ft 181kts
08-Oct-18 20:35 36.616948 -121.515990 117 8999ft 182kts
08-Oct-18 20:36 36.588703 -121.463949 117 8999ft 182kts
08-Oct-18 20:37 36.560327 -121.411759 117 8999ft 182kts
08-Oct-18 20:38 36.531980 -121.359701 117 8999ft 182kts
08-Oct-18 20:39 36.503348 -121.307570 118 8999ft 182kts
08-Oct-18 20:40 36.474895 -121.255683 118 8999ft 182kts
08-Oct-18 20:41 36.446506 -121.203780 119 8999ft 180kts
08-Oct-18 20:42 36.418257 -121.152296 119 9000ft 180kts
08-Oct-18 20:43 36.389689 -121.101148 120 9000ft 180kts
08-Oct-18 20:44 36.360840 -121.050230 120 9000ft 180kts
08-Oct-18 20:45 36.331969 -120.999388 120 9000ft 180kts
08-Oct-18 20:46 36.303119 -120.948667 120 9000ft 180kts
08-Oct-18 20:47 36.274200 -120.897908 120 9000ft 180kts
08-Oct-18 20:48 36.245145 -120.847010 120 8999ft 181kts
08-Oct-18 20:49 36.215915 -120.795841 120 9001ft 183kts
08-Oct-18 20:50 36.186371 -120.744209 120 9003ft 183kts
08-Oct-18 20:51 36.157126 -120.693155 121 9001ft 181kts
08-Oct-18 20:52 36.126622 -120.643595 131 9000ft 183kts
08-Oct-18 20:53 36.091517 -120.598371 128 9001ft 182kts
08-Oct-18 20:54 36.057430 -120.552008 128 9001ft 182kts
08-Oct-18 20:55 36.023162 -120.505663 128 9002ft 182kts
08-Oct-18 20:56 35.988906 -120.459456 128 9002ft 182kts
08-Oct-18 20:57 35.954640 -120.413317 128 9002ft 182kts
08-Oct-18 20:58 35.920361 -120.367161 127 9002ft 182kts
08-Oct-18 20:59 35.888838 -120.321631 127 8998ft 182kts
08-Oct-18 21:00 35.855649 -120.274997 127 9019ft 180kts
08-Oct-18 21:01 35.822995 -120.228074 127 9043ft 180kts
08-Oct-18 21:02 35.790266 -120.181501 127 9044ft 180kts
08-Oct-18 21:03 35.757588 -120.135029 127 9044ft 180kts
08-Oct-18 21:04 35.724756 -120.088434 127 9044ft 181kts
08-Oct-18 21:05 35.691812 -120.041712 127 9044ft 181kts
08-Oct-18 21:06 35.658689 -119.994813 127 9044ft 181kts
08-Oct-18 21:07 35.626216 -119.947772 110 9031ft 178kts
08-Oct-18 21:08 35.630500 -119.891060 93 8998ft 174kts
08-Oct-18 21:09 35.621367 -119.832596 96 8999ft 175kts
08-Oct-18 21:10 35.611401 -119.773786 96 8999ft 176kts
08-Oct-18 21:11 35.602456 -119.721671 98 8999ft 176kts
08-Oct-18 21:12 35.592494 -119.665139 98 9008ft 176kts
08-Oct-18 21:13 35.582120 -119.606289 98 9009ft 176kts
08-Oct-18 21:14 35.571736 -119.547523 98 9009ft 176kts
08-Oct-18 21:15 35.560915 -119.488713 99 9009ft 176kts
08-Oct-18 21:16 35.549857 -119.430095 99 9009ft 176kts
08-Oct-18 21:17 35.538600 -119.371507 99 9009ft 176kts
08-Oct-18 21:18 35.527434 -119.314720 100 9008ft 176kts
08-Oct-18 21:19 35.515935 -119.256361 100 9008ft 176kts
08-Oct-18 21:20 35.504506 -119.197963 100 9008ft 176kts
08-Oct-18 21:21 35.493081 -119.139668 100 9008ft 176kts
08-Oct-18 21:22 35.472269 -119.086136 125 9009ft 178kts
08-Oct-18 21:23 35.437585 -119.042558 135 9009ft 179kts
08-Oct-18 21:24 35.401567 -119.000622 135 9009ft 179kts
08-Oct-18 21:25 35.365256 -118.958507 135 9009ft 179kts
08-Oct-18 21:26 35.328953 -118.916489 135 9009ft 179kts
08-Oct-18 21:27 35.292698 -118.874588 135 9009ft 179kts
08-Oct-18 21:28 35.256331 -118.832617 135 9009ft 180kts
08-Oct-18 21:29 35.220470 -118.791314 134 9135ft 176kts
08-Oct-18 21:30 35.183798 -118.750509 154 9122ft 181kts
08-Oct-18 21:31 35.136485 -118.732611 164 9137ft 177kts
08-Oct-18 21:32 35.089262 -118.716138 165 9094ft 178kts
08-Oct-18 21:33 35.041710 -118.699669 165 9067ft 176kts
08-Oct-18 21:34 34.994686 -118.683435 165 9073ft 175kts
08-Oct-18 21:35 34.947921 -118.667311 165 9074ft 175kts
08-Oct-18 21:36 34.901186 -118.651222 165 9074ft 175kts
08-Oct-18 21:37 34.856551 -118.635920 165 9073ft 175kts
08-Oct-18 21:38 34.809803 -118.619896 165 9073ft 175kts
08-Oct-18 21:39 34.763062 -118.603875 165 9073ft 175kts
08-Oct-18 21:40 34.716217 -118.587865 165 9073ft 176kts
08-Oct-18 21:41 34.670083 -118.567377 155 9073ft 178kts
08-Oct-18 21:42 34.625242 -118.542068 154 9073ft 178kts
08-Oct-18 21:43 34.580558 -118.516315 154 9073ft 178kts
08-Oct-18 21:44 34.535905 -118.490363 154 9053ft 180kts
08-Oct-18 21:45 34.490865 -118.464134 154 9009ft 179kts
08-Oct-18 21:46 34.446108 -118.438141 153 9009ft 178kts
08-Oct-18 21:47 34.401430 -118.412121 153 9009ft 178kts
08-Oct-18 21:48 34.354898 -118.385119 153 8372ft 189kts
08-Oct-18 21:49 34.307409 -118.357555 152 7680ft 190kts
08-Oct-18 21:50 34.260952 -118.330912 153 7035ft 186kts
08-Oct-18 21:51 34.215784 -118.304953 152 6998ft 174kts
08-Oct-18 21:52 34.169795 -118.287538 172 6656ft 181kts
08-Oct-18 21:53 34.119702 -118.277856 170 5867ft 185kts
08-Oct-18 21:54 34.068638 -118.270151 172 5073ft 185kts
08-Oct-18 21:55 34.020305 -118.266446 185 4629ft 170kts
08-Oct-18 21:56 33.978771 -118.285479 216 3652ft 156kts
08-Oct-18 21:57 33.947613 -118.319115 233 2082ft 147kts
08-Oct-18 21:58 33.939483 -118.355445 268 967ft 99kts
08-Oct-18 21:59 33.936943 -118.386644 266 114ft 86kts
08-Oct-18 22:00 33.934214 -118.402957 210 107ft 12kts
08-Oct-18 22:01 33.932755 -118.404896 172 107ft 10kts
08-Oct-18 22:02 33.932185 -118.404407 75 107ft 0kts
08-Oct-18 22:03 33.932185 -118.404408 75 107ft 0kts

Navigation Log

Ident Type
Flight plan parsing failed, navigation log unavailable